Ashburn, Georgia
Current Conditions -  °F | °C
As of 11:55 AM on Thursday 30 Oct 2014 (Local Time) from KCKF Reporting Station
Clear Clear  
Wind Chill: 65°   Ceiling: Unl
Heat Index: 65°   Visibility: 10mi
Dew Point: 47°   Wind: 5mph
Humidity: 51%   Direction: 360°N
Pressure: 30.05"   Gusts: NA
Location:  31.71°N, 83.65°W
Report Text: KCKF 301555Z AUTO 36004KT 10SM CLR 19/08 A3005 RMK AO2 T01850082
Loading
Personal Weather Stations






























Interactive Weather Map New forecast layout! Learn more

10-Day Weather Forecast

Advertisements
Track Severe Weather on mobile